sensor_id;sensor_type;location;lat;lon;timestamp;pressure;altitude;pressure_sealevel;temperature;humidity
58753;BME280;44525;46.052;13.610;2022-12-16T00:02:25;99213.84;;;5.16;100.00
58753;BME280;44525;46.052;13.610;2022-12-16T00:04:50;99217.59;;;5.15;100.00
58753;BME280;44525;46.052;13.610;2022-12-16T00:07:15;99216.03;;;5.09;100.00
58753;BME280;44525;46.052;13.610;2022-12-16T00:09:41;99209.44;;;5.31;100.00
58753;BME280;44525;46.052;13.610;2022-12-16T00:12:06;99217.28;;;5.27;100.00
58753;BME280;44525;46.052;13.610;2022-12-16T00:14:31;99218.34;;;5.26;100.00
58753;BME280;44525;46.052;13.610;2022-12-16T00:16:57;99230.91;;;5.36;100.00
58753;BME280;44525;46.052;13.610;2022-12-16T00:19:22;99228.75;;;5.38;100.00
58753;BME280;44525;46.052;13.610;2022-12-16T00:21:48;99245.13;;;5.47;100.00
58753;BME280;44525;46.052;13.610;2022-12-16T00:24:14;99240.84;;;5.40;100.00
58753;BME280;44525;46.052;13.610;2022-12-16T00:26:39;99255.13;;;5.36;100.00
58753;BME280;44525;46.052;13.610;2022-12-16T00:29:05;99254.06;;;5.37;100.00
58753;BME280;44525;46.052;13.610;2022-12-16T00:31:30;99245.63;;;5.49;100.00
58753;BME280;44525;46.052;13.610;2022-12-16T00:33:56;99254.84;;;5.42;100.00
58753;BME280;44525;46.052;13.610;2022-12-16T00:36:22;99255.34;;;5.44;100.00
58753;BME280;44525;46.052;13.610;2022-12-16T00:38:47;99262.94;;;5.37;100.00
58753;BME280;44525;46.052;13.610;2022-12-16T00:41:13;99267.50;;;5.42;100.00
58753;BME280;44525;46.052;13.610;2022-12-16T00:43:38;99259.66;;;5.45;100.00
58753;BME280;44525;46.052;13.610;2022-12-16T00:46:04;99268.00;;;5.44;100.00
58753;BME280;44525;46.052;13.610;2022-12-16T00:48:29;99277.34;;;5.57;100.00
58753;BME280;44525;46.052;13.610;2022-12-16T00:50:55;99284.94;;;5.50;100.00
58753;BME280;44525;46.052;13.610;2022-12-16T00:53:21;99281.88;;;5.61;100.00
58753;BME280;44525;46.052;13.610;2022-12-16T00:55:47;99273.25;;;5.65;100.00
58753;BME280;44525;46.052;13.610;2022-12-16T00:58:12;99280.81;;;5.62;100.00
58753;BME280;44525;46.052;13.610;2022-12-16T01:00:39;99290.19;;;5.70;100.00
58753;BME280;44525;46.052;13.610;2022-12-16T01:03:04;99297.44;;;5.70;100.00
58753;BME280;44525;46.052;13.610;2022-12-16T01:05:29;99293.47;;;5.62;100.00
58753;BME280;44525;46.052;13.610;2022-12-16T01:07:55;99291.59;;;5.62;100.00
58753;BME280;44525;46.052;13.610;2022-12-16T01:10:22;99296.97;;;5.62;100.00
58753;BME280;44525;46.052;13.610;2022-12-16T01:12:48;99300.97;;;5.65;100.00
58753;BME280;44525;46.052;13.610;2022-12-16T01:15:14;99307.63;;;5.78;100.00
58753;BME280;44525;46.052;13.610;2022-12-16T01:17:40;99305.06;;;5.62;100.00
58753;BME280;44525;46.052;13.610;2022-12-16T01:20:06;99315.47;;;5.74;100.00
58753;BME280;44525;46.052;13.610;2022-12-16T01:22:33;99314.13;;;5.72;100.00
58753;BME280;44525;46.052;13.610;2022-12-16T01:24:59;99312.00;;;5.69;100.00
58753;BME280;44525;46.052;13.610;2022-12-16T01:27:26;99314.97;;;5.67;100.00
58753;BME280;44525;46.052;13.610;2022-12-16T01:29:51;99316.00;;;5.71;100.00
58753;BME280;44525;46.052;13.610;2022-12-16T01:32:17;99319.25;;;5.73;100.00
58753;BME280;44525;46.052;13.610;2022-12-16T01:34:42;99325.69;;;5.72;100.00
58753;BME280;44525;46.052;13.610;2022-12-16T01:37:12;99327.13;;;5.65;100.00
58753;BME280;44525;46.052;13.610;2022-12-16T01:39:38;99329.69;;;5.80;100.00
58753;BME280;44525;46.052;13.610;2022-12-16T01:42:09;99316.53;;;5.73;100.00
58753;BME280;44525;46.052;13.610;2022-12-16T01:44:35;99320.41;;;5.96;100.00
58753;BME280;44525;46.052;13.610;2022-12-16T01:47:03;99319.09;;;5.89;100.00
58753;BME280;44525;46.052;13.610;2022-12-16T01:49:34;99318.09;;;5.85;100.00
58753;BME280;44525;46.052;13.610;2022-12-16T01:52:03;99304.91;;;5.83;100.00
58753;BME280;44525;46.052;13.610;2022-12-16T01:54:36;99308.31;;;5.89;100.00
58753;BME280;44525;46.052;13.610;2022-12-16T01:57:09;99302.50;;;5.76;100.00
58753;BME280;44525;46.052;13.610;2022-12-16T01:59:38;99299.72;;;5.87;100.00
58753;BME280;44525;46.052;13.610;2022-12-16T02:02:05;99300.50;;;5.92;100.00
58753;BME280;44525;46.052;13.610;2022-12-16T02:04:31;99287.53;;;6.00;100.00
58753;BME280;44525;46.052;13.610;2022-12-16T02:06:57;99309.38;;;5.93;100.00
58753;BME280;44525;46.052;13.610;2022-12-16T02:09:23;99304.25;;;5.96;100.00
58753;BME280;44525;46.052;13.610;2022-12-16T02:22:43;99318.25;;;5.93;100.00
58753;BME280;44525;46.052;13.610;2022-12-16T02:28:07;99321.75;;;5.99;100.00
58753;BME280;44525;46.052;13.610;2022-12-16T02:31:05;99318.75;;;6.01;100.00
58753;BME280;44525;46.052;13.610;2022-12-16T02:33:47;99304.84;;;5.88;100.00
58753;BME280;44525;46.052;13.610;2022-12-16T02:39:12;99303.19;;;5.92;100.00
58753;BME280;44525;46.052;13.610;2022-12-16T02:44:54;99311.78;;;5.94;100.00
58753;BME280;44525;46.052;13.610;2022-12-16T02:47:22;99302.94;;;5.89;100.00
58753;BME280;44525;46.052;13.610;2022-12-16T02:49:50;99309.38;;;5.93;100.00
58753;BME280;44525;46.052;13.610;2022-12-16T02:52:22;99310.16;;;5.99;100.00
58753;BME280;44525;46.052;13.610;2022-12-16T02:54:50;99306.91;;;6.02;100.00
58753;BME280;44525;46.052;13.610;2022-12-16T03:00:09;99318.19;;;6.04;100.00
58753;BME280;44525;46.052;13.610;2022-12-16T03:03:11;99304.28;;;5.91;100.00
58753;BME280;44525;46.052;13.610;2022-12-16T03:05:37;99309.72;;;5.86;100.00
58753;BME280;44525;46.052;13.610;2022-12-16T03:08:09;99312.31;;;5.96;100.00
58753;BME280;44525;46.052;13.610;2022-12-16T03:10:41;99318.19;;;6.04;100.00
58753;BME280;44525;46.052;13.610;2022-12-16T03:13:10;99314.56;;;5.84;100.00
58753;BME280;44525;46.052;13.610;2022-12-16T03:15:38;99319.59;;;6.01;100.00
58753;BME280;44525;46.052;13.610;2022-12-16T03:18:07;99316.97;;;5.86;100.00
58753;BME280;44525;46.052;13.610;2022-12-16T03:20:46;99311.84;;;5.89;100.00
58753;BME280;44525;46.052;13.610;2022-12-16T03:23:19;99310.72;;;5.90;100.00
58753;BME280;44525;46.052;13.610;2022-12-16T03:25:49;99325.81;;;5.96;100.00
58753;BME280;44525;46.052;13.610;2022-12-16T03:28:35;99305.81;;;6.03;100.00
58753;BME280;44525;46.052;13.610;2022-12-16T03:31:12;99299.56;;;6.07;100.00
58753;BME280;44525;46.052;13.610;2022-12-16T03:36:42;99305.91;;;5.87;100.00
58753;BME280;44525;46.052;13.610;2022-12-16T03:39:12;99314.81;;;5.88;100.00
58753;BME280;44525;46.052;13.610;2022-12-16T03:41:39;99311.78;;;6.00;100.00
58753;BME280;44525;46.052;13.610;2022-12-16T03:44:06;99313.66;;;5.99;100.00
58753;BME280;44525;46.052;13.610;2022-12-16T03:46:32;99305.25;;;6.06;100.00
58753;BME280;44525;46.052;13.610;2022-12-16T03:48:57;99304.78;;;5.99;100.00
58753;BME280;44525;46.052;13.610;2022-12-16T03:51:23;99295.28;;;6.06;100.00
58753;BME280;44525;46.052;13.610;2022-12-16T03:53:48;99294.53;;;5.95;100.00
58753;BME280;44525;46.052;13.610;2022-12-16T03:56:14;99293.66;;;6.05;100.00
58753;BME280;44525;46.052;13.610;2022-12-16T03:58:40;99288.59;;;5.99;100.00
58753;BME280;44525;46.052;13.610;2022-12-16T04:01:07;99282.06;;;6.05;100.00
58753;BME280;44525;46.052;13.610;2022-12-16T04:03:34;99293.72;;;6.00;100.00
58753;BME280;44525;46.052;13.610;2022-12-16T04:05:59;99288.84;;;6.02;100.00
58753;BME280;44525;46.052;13.610;2022-12-16T04:08:24;99302.94;;;5.89;100.00
58753;BME280;44525;46.052;13.610;2022-12-16T04:10:51;99289.75;;;5.87;100.00
58753;BME280;44525;46.052;13.610;2022-12-16T04:13:35;99292.31;;;5.73;100.00
58753;BME280;44525;46.052;13.610;2022-12-16T04:16:19;99286.03;;;5.83;100.00
58753;BME280;44525;46.052;13.610;2022-12-16T04:19:03;99282.72;;;5.91;100.00
58753;BME280;44525;46.052;13.610;2022-12-16T04:21:47;99275.56;;;5.76;100.00
58753;BME280;44525;46.052;13.610;2022-12-16T04:24:31;99272.81;;;5.82;100.00
58753;BME280;44525;46.052;13.610;2022-12-16T04:26:57;99284.31;;;5.92;100.00
58753;BME280;44525;46.052;13.610;2022-12-16T04:29:42;99274.72;;;5.81;100.00
58753;BME280;44525;46.052;13.610;2022-12-16T04:32:26;99292.53;;;5.77;100.00
58753;BME280;44525;46.052;13.610;2022-12-16T04:35:12;99286.38;;;5.71;100.00
58753;BME280;44525;46.052;13.610;2022-12-16T04:37:56;99278.25;;;5.76;100.00
58753;BME280;44525;46.052;13.610;2022-12-16T04:40:40;99283.38;;;5.78;100.00
58753;BME280;44525;46.052;13.610;2022-12-16T04:43:24;99286.03;;;5.83;100.00
58753;BME280;44525;46.052;13.610;2022-12-16T04:46:07;99269.88;;;5.83;100.00
58753;BME280;44525;46.052;13.610;2022-12-16T04:48:51;99275.69;;;5.90;100.00
58753;BME280;44525;46.052;13.610;2022-12-16T04:51:35;99286.47;;;5.90;100.00
58753;BME280;44525;46.052;13.610;2022-12-16T04:54:19;99292.91;;;5.94;100.00
58753;BME280;44525;46.052;13.610;2022-12-16T04:57:03;99295.09;;;5.92;100.00
58753;BME280;44525;46.052;13.610;2022-12-16T04:59:47;99296.28;;;5.81;100.00
58753;BME280;44525;46.052;13.610;2022-12-16T05:02:31;99300.44;;;6.03;100.00
58753;BME280;44525;46.052;13.610;2022-12-16T05:05:15;99308.00;;;5.95;100.00
58753;BME280;44525;46.052;13.610;2022-12-16T05:07:58;99307.53;;;5.88;100.00
58753;BME280;44525;46.052;13.610;2022-12-16T05:10:42;99306.94;;;5.96;100.00
58753;BME280;44525;46.052;13.610;2022-12-16T05:13:26;99300.81;;;5.86;100.00
58753;BME280;44525;46.052;13.610;2022-12-16T05:16:10;99302.16;;;5.88;100.00
58753;BME280;44525;46.052;13.610;2022-12-16T05:18:54;99308.56;;;5.97;100.00
58753;BME280;44525;46.052;13.610;2022-12-16T05:21:38;99307.22;;;5.95;100.00
58753;BME280;44525;46.052;13.610;2022-12-16T05:24:22;99315.06;;;5.91;100.00
58753;BME280;44525;46.052;13.610;2022-12-16T05:27:06;99324.56;;;5.78;100.00
58753;BME280;44525;46.052;13.610;2022-12-16T05:29:50;99327.59;;;5.72;100.00
58753;BME280;44525;46.052;13.610;2022-12-16T05:32:34;99323.00;;;5.77;100.00
58753;BME280;44525;46.052;13.610;2022-12-16T05:35:18;99325.81;;;5.91;100.00
58753;BME280;44525;46.052;13.610;2022-12-16T05:38:02;99330.94;;;5.93;100.00
58753;BME280;44525;46.052;13.610;2022-12-16T05:40:46;99332.16;;;5.76;100.00
58753;BME280;44525;46.052;13.610;2022-12-16T05:43:30;99337.97;;;5.89;100.00
58753;BME280;44525;46.052;13.610;2022-12-16T05:46:14;99334.47;;;5.88;100.00
58753;BME280;44525;46.052;13.610;2022-12-16T05:48:59;99336.09;;;5.89;100.00
58753;BME280;44525;46.052;13.610;2022-12-16T05:51:43;99344.69;;;5.91;100.00
58753;BME280;44525;46.052;13.610;2022-12-16T05:54:27;99338.75;;;6.00;100.00
58753;BME280;44525;46.052;13.610;2022-12-16T05:57:11;99331.72;;;5.99;100.00
58753;BME280;44525;46.052;13.610;2022-12-16T05:59:55;99342.44;;;6.04;100.00
58753;BME280;44525;46.052;13.610;2022-12-16T06:02:39;99342.78;;;5.97;100.00
58753;BME280;44525;46.052;13.610;2022-12-16T06:05:22;99354.47;;;5.82;100.00
58753;BME280;44525;46.052;13.610;2022-12-16T06:08:06;99350.06;;;5.91;100.00
58753;BME280;44525;46.052;13.610;2022-12-16T06:10:50;99340.72;;;5.84;100.00
58753;BME280;44525;46.052;13.610;2022-12-16T06:13:34;99348.03;;;5.78;100.00
58753;BME280;44525;46.052;13.610;2022-12-16T06:16:18;99355.53;;;5.81;100.00
58753;BME280;44525;46.052;13.610;2022-12-16T06:19:02;99357.09;;;5.87;100.00
58753;BME280;44525;46.052;13.610;2022-12-16T06:21:46;99365.69;;;6.00;100.00
58753;BME280;44525;46.052;13.610;2022-12-16T06:24:30;99370.78;;;5.96;100.00
58753;BME280;44525;46.052;13.610;2022-12-16T06:27:14;99367.59;;;5.89;100.00
58753;BME280;44525;46.052;13.610;2022-12-16T06:29:58;99362.34;;;5.73;100.00
58753;BME280;44525;46.052;13.610;2022-12-16T06:32:42;99366.31;;;5.86;100.00
58753;BME280;44525;46.052;13.610;2022-12-16T06:35:26;99367.94;;;5.82;100.00
58753;BME280;44525;46.052;13.610;2022-12-16T06:38:10;99370.63;;;5.82;100.00
58753;BME280;44525;46.052;13.610;2022-12-16T06:40:54;99373.84;;;5.84;100.00
58753;BME280;44525;46.052;13.610;2022-12-16T06:43:38;99377.53;;;5.93;100.00
58753;BME280;44525;46.052;13.610;2022-12-16T06:46:22;99375.91;;;6.03;100.00
58753;BME280;44525;46.052;13.610;2022-12-16T06:49:06;99380.19;;;6.04;100.00
58753;BME280;44525;46.052;13.610;2022-12-16T06:51:49;99389.72;;;5.91;100.00
58753;BME280;44525;46.052;13.610;2022-12-16T06:54:33;99396.44;;;5.88;100.00
58753;BME280;44525;46.052;13.610;2022-12-16T06:57:17;99396.25;;;5.79;100.00
58753;BME280;44525;46.052;13.610;2022-12-16T07:00:02;99398.09;;;5.84;100.00
58753;BME280;44525;46.052;13.610;2022-12-16T07:02:46;99395.28;;;6.05;100.00
58753;BME280;44525;46.052;13.610;2022-12-16T07:05:30;99405.22;;;6.09;100.00
58753;BME280;44525;46.052;13.610;2022-12-16T07:08:14;99411.44;;;6.05;100.00
58753;BME280;44525;46.052;13.610;2022-12-16T07:10:58;99422.03;;;5.91;100.00
58753;BME280;44525;46.052;13.610;2022-12-16T07:13:49;99423.97;;;5.85;100.00
58753;BME280;44525;46.052;13.610;2022-12-16T07:16:33;99426.66;;;5.85;100.00
58753;BME280;44525;46.052;13.610;2022-12-16T07:19:17;99440.03;;;6.06;100.00
58753;BME280;44525;46.052;13.610;2022-12-16T07:22:01;99443.78;;;6.05;100.00
58753;BME280;44525;46.052;13.610;2022-12-16T07:24:45;99447.56;;;6.04;100.00
58753;BME280;44525;46.052;13.610;2022-12-16T07:27:29;99446.53;;;6.00;100.00
58753;BME280;44525;46.052;13.610;2022-12-16T07:30:13;99440.63;;;5.92;100.00
58753;BME280;44525;46.052;13.610;2022-12-16T07:32:56;99440.69;;;5.82;100.00
58753;BME280;44525;46.052;13.610;2022-12-16T07:35:43;99446.00;;;5.97;100.00
58753;BME280;44525;46.052;13.610;2022-12-16T07:38:27;99451.13;;;5.89;100.00
58753;BME280;44525;46.052;13.610;2022-12-16T07:41:11;99442.22;;;5.99;100.00
58753;BME280;44525;46.052;13.610;2022-12-16T07:43:55;99442.78;;;5.90;100.00
58753;BME280;44525;46.052;13.610;2022-12-16T07:46:53;99454.97;;;5.83;100.00
58753;BME280;44525;46.052;13.610;2022-12-16T07:49:37;99447.75;;;5.73;100.00
58753;BME280;44525;46.052;13.610;2022-12-16T07:52:21;99443.13;;;5.78;100.00
58753;BME280;44525;46.052;13.610;2022-12-16T07:55:05;99446.38;;;5.75;100.00
58753;BME280;44525;46.052;13.610;2022-12-16T07:57:50;99441.19;;;5.89;100.00
58753;BME280;44525;46.052;13.610;2022-12-16T08:00:34;99437.94;;;5.87;100.00
58753;BME280;44525;46.052;13.610;2022-12-16T08:03:18;99438.16;;;5.96;100.00
58753;BME280;44525;46.052;13.610;2022-12-16T08:06:02;99447.66;;;5.88;100.00
58753;BME280;44525;46.052;13.610;2022-12-16T08:08:46;99440.84;;;5.96;100.00
58753;BME280;44525;46.052;13.610;2022-12-16T08:11:30;99449.75;;;6.02;100.00
58753;BME280;44525;46.052;13.610;2022-12-16T08:14:25;99451.59;;;6.06;100.00
58753;BME280;44525;46.052;13.610;2022-12-16T08:17:08;99458.28;;;6.14;100.00
58753;BME280;44525;46.052;13.610;2022-12-16T08:19:52;99459.75;;;6.01;100.00
58753;BME280;44525;46.052;13.610;2022-12-16T08:22:39;99474.00;;;6.02;100.00
58753;BME280;44525;46.052;13.610;2022-12-16T08:25:23;99480.50;;;5.95;100.00
58753;BME280;44525;46.052;13.610;2022-12-16T08:28:07;99485.59;;;6.02;100.00
58753;BME280;44525;46.052;13.610;2022-12-16T08:30:51;99487.47;;;6.07;100.00
58753;BME280;44525;46.052;13.610;2022-12-16T08:33:34;99490.19;;;5.96;100.00
58753;BME280;44525;46.052;13.610;2022-12-16T08:36:18;99496.72;;;5.85;100.00
58753;BME280;44525;46.052;13.610;2022-12-16T08:39:02;99496.44;;;5.82;100.00
58753;BME280;44525;46.052;13.610;2022-12-16T08:41:46;99502.03;;;6.01;100.00
58753;BME280;44525;46.052;13.610;2022-12-16T08:44:30;99500.19;;;5.91;100.00
58753;BME280;44525;46.052;13.610;2022-12-16T08:47:14;99506.06;;;6.03;100.00
58753;BME280;44525;46.052;13.610;2022-12-16T08:49:58;99521.06;;;6.20;100.00
58753;BME280;44525;46.052;13.610;2022-12-16T08:52:42;99517.13;;;6.07;100.00
58753;BME280;44525;46.052;13.610;2022-12-16T08:55:26;99526.00;;;6.07;100.00
58753;BME280;44525;46.052;13.610;2022-12-16T08:58:09;99532.97;;;6.13;100.00
58753;BME280;44525;46.052;13.610;2022-12-16T09:00:53;99528.38;;;6.14;100.00
58753;BME280;44525;46.052;13.610;2022-12-16T09:03:37;99533.25;;;6.12;100.00
58753;BME280;44525;46.052;13.610;2022-12-16T09:06:21;99538.13;;;6.10;100.00
58753;BME280;44525;46.052;13.610;2022-12-16T09:09:05;99536.44;;;6.19;100.00
58753;BME280;44525;46.052;13.610;2022-12-16T09:11:49;99537.56;;;6.13;100.00
58753;BME280;44525;46.052;13.610;2022-12-16T09:14:33;99536.19;;;6.15;100.00
58753;BME280;44525;46.052;13.610;2022-12-16T09:17:17;99535.09;;;6.22;100.00
58753;BME280;44525;46.052;13.610;2022-12-16T09:20:02;99529.94;;;6.25;100.00
58753;BME280;44525;46.052;13.610;2022-12-16T09:22:46;99530.44;;;6.27;100.00
58753;BME280;44525;46.052;13.610;2022-12-16T09:25:30;99532.03;;;6.34;100.00
58753;BME280;44525;46.052;13.610;2022-12-16T09:28:14;99524.53;;;6.25;100.00
58753;BME280;44525;46.052;13.610;2022-12-16T09:30:58;99528.00;;;6.31;100.00
58753;BME280;44525;46.052;13.610;2022-12-16T09:33:42;99533.13;;;6.27;100.00
58753;BME280;44525;46.052;13.610;2022-12-16T09:36:26;99535.81;;;6.32;100.00
58753;BME280;44525;46.052;13.610;2022-12-16T09:39:09;99535.75;;;6.43;100.00
58753;BME280;44525;46.052;13.610;2022-12-16T09:45:17;99542.00;;;6.38;100.00
58753;BME280;44525;46.052;13.610;2022-12-16T09:48:20;99531.72;;;6.40;100.00
58753;BME280;44525;46.052;13.610;2022-12-16T09:51:10;99535.25;;;6.41;100.00
58753;BME280;44525;46.052;13.610;2022-12-16T09:53:56;99534.19;;;6.37;100.00
58753;BME280;44525;46.052;13.610;2022-12-16T09:56:41;99528.78;;;6.37;100.00
58753;BME280;44525;46.052;13.610;2022-12-16T09:59:36;99527.66;;;6.43;100.00
58753;BME280;44525;46.052;13.610;2022-12-16T10:02:24;99534.66;;;6.44;100.00
58753;BME280;44525;46.052;13.610;2022-12-16T10:05:14;99532.53;;;6.41;100.00
58753;BME280;44525;46.052;13.610;2022-12-16T10:08:23;99538.13;;;6.49;100.00
58753;BME280;44525;46.052;13.610;2022-12-16T10:11:21;99535.75;;;6.43;100.00
58753;BME280;44525;46.052;13.610;2022-12-16T10:14:12;99533.28;;;6.46;100.00
58753;BME280;44525;46.052;13.610;2022-12-16T10:17:24;99531.47;;;6.37;100.00
58753;BME280;44525;46.052;13.610;2022-12-16T10:23:20;99524.75;;;6.34;100.00
58753;BME280;44525;46.052;13.610;2022-12-16T10:29:04;99520.44;;;6.33;100.00
58753;BME280;44525;46.052;13.610;2022-12-16T10:31:50;99516.34;;;6.41;100.00
58753;BME280;44525;46.052;13.610;2022-12-16T10:34:35;99522.25;;;6.43;100.00
58753;BME280;44525;46.052;13.610;2022-12-16T10:37:36;99519.50;;;6.48;100.00
58753;BME280;44525;46.052;13.610;2022-12-16T10:40:24;99516.81;;;6.48;100.00
58753;BME280;44525;46.052;13.610;2022-12-16T10:43:16;99516.50;;;6.55;100.00
58753;BME280;44525;46.052;13.610;2022-12-16T10:46:05;99519.97;;;6.60;100.00
58753;BME280;44525;46.052;13.610;2022-12-16T10:48:50;99517.28;;;6.60;100.00
58753;BME280;44525;46.052;13.610;2022-12-16T10:51:35;99519.16;;;6.60;100.00
58753;BME280;44525;46.052;13.610;2022-12-16T10:57:11;99513.25;;;6.58;100.00
58753;BME280;44525;46.052;13.610;2022-12-16T11:00:11;99514.59;;;6.60;100.00
58753;BME280;44525;46.052;13.610;2022-12-16T11:02:55;99512.94;;;6.64;100.00
58753;BME280;44525;46.052;13.610;2022-12-16T11:05:38;99506.97;;;6.67;100.00
58753;BME280;44525;46.052;13.610;2022-12-16T11:08:25;99503.44;;;6.67;100.00
58753;BME280;44525;46.052;13.610;2022-12-16T11:11:23;99510.19;;;6.70;100.00
58753;BME280;44525;46.052;13.610;2022-12-16T11:20:20;99510.19;;;6.70;100.00
58753;BME280;44525;46.052;13.610;2022-12-16T11:26:17;99517.78;;;6.67;100.00
58753;BME280;44525;46.052;13.610;2022-12-16T11:32:05;99523.06;;;6.78;100.00
58753;BME280;44525;46.052;13.610;2022-12-16T11:34:56;99517.09;;;6.81;100.00
58753;BME280;44525;46.052;13.610;2022-12-16T11:37:42;99516.56;;;6.79;100.00
58753;BME280;44525;46.052;13.610;2022-12-16T11:40:28;99515.56;;;6.75;100.00
58753;BME280;44525;46.052;13.610;2022-12-16T11:43:15;99526.44;;;6.64;100.00
58753;BME280;44525;46.052;13.610;2022-12-16T11:46:03;99528.00;;;6.65;100.00
58753;BME280;44525;46.052;13.610;2022-12-16T11:49:00;99518.28;;;6.70;100.00
58753;BME280;44525;46.052;13.610;2022-12-16T11:51:53;99525.31;;;6.65;100.00
58753;BME280;44525;46.052;13.610;2022-12-16T11:55:28;99525.13;;;6.57;100.00
58753;BME280;44525;46.052;13.610;2022-12-16T11:57:55;99522.13;;;6.58;100.00
58753;BME280;44525;46.052;13.610;2022-12-16T12:00:51;99517.72;;;6.73;100.00
58753;BME280;44525;46.052;13.610;2022-12-16T12:03:43;99525.59;;;6.64;100.00
58753;BME280;44525;46.052;13.610;2022-12-16T12:09:37;99522.88;;;6.69;100.00
58753;BME280;44525;46.052;13.610;2022-12-16T12:12:39;99526.88;;;6.72;100.00
58753;BME280;44525;46.052;13.610;2022-12-16T12:18:21;99531.25;;;6.67;100.00
58753;BME280;44525;46.052;13.610;2022-12-16T12:24:21;99526.97;;;6.61;100.00
58753;BME280;44525;46.052;13.610;2022-12-16T12:30:09;99536.16;;;6.60;100.00
58753;BME280;44525;46.052;13.610;2022-12-16T12:35:58;99537.75;;;6.61;100.00
58753;BME280;44525;46.052;13.610;2022-12-16T12:42:26;99548.81;;;6.65;100.00
58753;BME280;44525;46.052;13.610;2022-12-16T12:46:31;99540.34;;;6.42;100.00
58753;BME280;44525;46.052;13.610;2022-12-16T12:51:39;99549.94;;;6.59;100.00
58753;BME280;44525;46.052;13.610;2022-12-16T12:57:22;99547.44;;;6.67;100.00
58753;BME280;44525;46.052;13.610;2022-12-16T13:00:17;99544.13;;;6.76;100.00
58753;BME280;44525;46.052;13.610;2022-12-16T13:03:13;99557.66;;;6.71;100.00
58753;BME280;44525;46.052;13.610;2022-12-16T13:06:00;99552.75;;;6.78;100.00
58753;BME280;44525;46.052;13.610;2022-12-16T13:11:31;99549.66;;;6.60;100.00
58753;BME280;44525;46.052;13.610;2022-12-16T13:17:18;99561.53;;;6.59;100.00
58753;BME280;44525;46.052;13.610;2022-12-16T13:20:05;99559.31;;;6.66;100.00
58753;BME280;44525;46.052;13.610;2022-12-16T13:26:19;99558.81;;;6.59;100.00
58753;BME280;44525;46.052;13.610;2022-12-16T13:35:01;99565.47;;;6.72;100.00
58753;BME280;44525;46.052;13.610;2022-12-16T13:41:02;99565.22;;;6.68;100.00
58753;BME280;44525;46.052;13.610;2022-12-16T13:43:53;99573.31;;;6.68;100.00
58753;BME280;44525;46.052;13.610;2022-12-16T13:46:52;99569.88;;;6.63;100.00
58753;BME280;44525;46.052;13.610;2022-12-16T13:49:48;99566.28;;;6.73;100.00
58753;BME280;44525;46.052;13.610;2022-12-16T13:55:26;99580.91;;;6.61;100.00
58753;BME280;44525;46.052;13.610;2022-12-16T13:58:19;99584.88;;;6.74;100.00
58753;BME280;44525;46.052;13.610;2022-12-16T14:01:10;99590.41;;;6.59;100.00
58753;BME280;44525;46.052;13.610;2022-12-16T14:03:55;99594.38;;;6.66;100.00
58753;BME280;44525;46.052;13.610;2022-12-16T14:06:40;99587.66;;;6.64;100.00
58753;BME280;44525;46.052;13.610;2022-12-16T14:12:22;99607.59;;;6.73;100.00
58753;BME280;44525;46.052;13.610;2022-12-16T14:15:21;99602.50;;;6.61;100.00
58753;BME280;44525;46.052;13.610;2022-12-16T14:18:22;99606.53;;;6.64;100.00
58753;BME280;44525;46.052;13.610;2022-12-16T14:21:15;99605.75;;;6.63;100.00
58753;BME280;44525;46.052;13.610;2022-12-16T14:24:09;99607.38;;;6.64;100.00
58753;BME280;44525;46.052;13.610;2022-12-16T14:26:55;99605.97;;;6.67;100.00
58753;BME280;44525;46.052;13.610;2022-12-16T14:29:41;99607.88;;;6.66;100.00
58753;BME280;44525;46.052;13.610;2022-12-16T14:32:31;99617.59;;;6.67;100.00
58753;BME280;44525;46.052;13.610;2022-12-16T14:35:19;99619.41;;;6.77;100.00
58753;BME280;44525;46.052;13.610;2022-12-16T14:38:28;99615.69;;;6.68;100.00
58753;BME280;44525;46.052;13.610;2022-12-16T14:41:14;99622.03;;;6.88;100.00
58753;BME280;44525;46.052;13.610;2022-12-16T14:44:01;99621.31;;;6.77;100.00
58753;BME280;44525;46.052;13.610;2022-12-16T14:46:50;99626.22;;;6.70;100.00
58753;BME280;44525;46.052;13.610;2022-12-16T14:49:34;99621.88;;;6.68;100.00
58753;BME280;44525;46.052;13.610;2022-12-16T14:52:23;99627.84;;;6.71;100.00
58753;BME280;44525;46.052;13.610;2022-12-16T14:55:19;99631.03;;;6.73;100.00
58753;BME280;44525;46.052;13.610;2022-12-16T14:58:23;99635.84;;;6.81;100.00
58753;BME280;44525;46.052;13.610;2022-12-16T15:03:57;99635.66;;;6.72;100.00
58753;BME280;44525;46.052;13.610;2022-12-16T15:06:45;99636.94;;;6.80;100.00
58753;BME280;44525;46.052;13.610;2022-12-16T15:09:38;99629.13;;;6.78;100.00
58753;BME280;44525;46.052;13.610;2022-12-16T15:12:26;99634.31;;;6.70;100.00
58753;BME280;44525;46.052;13.610;2022-12-16T15:15:41;99633.59;;;6.54;100.00
58753;BME280;44525;46.052;13.610;2022-12-16T15:18:36;99638.47;;;6.46;100.00
58753;BME280;44525;46.052;13.610;2022-12-16T15:21:21;99645.75;;;6.51;100.00
58753;BME280;44525;46.052;13.610;2022-12-16T15:24:09;99641.41;;;6.55;100.00
58753;BME280;44525;46.052;13.610;2022-12-16T15:27:33;99647.84;;;6.59;100.00
58753;BME280;44525;46.052;13.610;2022-12-16T15:30:31;99652.19;;;6.60;100.00
58753;BME280;44525;46.052;13.610;2022-12-16T15:33:19;99655.16;;;6.54;100.00
58753;BME280;44525;46.052;13.610;2022-12-16T15:36:05;99650.59;;;6.54;100.00
58753;BME280;44525;46.052;13.610;2022-12-16T15:38:49;99657.00;;;6.63;100.00
58753;BME280;44525;46.052;13.610;2022-12-16T15:41:35;99657.25;;;6.67;100.00
58753;BME280;44525;46.052;13.610;2022-12-16T15:44:23;99660.56;;;6.59;100.00
58753;BME280;44525;46.052;13.610;2022-12-16T15:47:29;99666.47;;;6.61;100.00
58753;BME280;44525;46.052;13.610;2022-12-16T15:50:14;99671.00;;;6.65;100.00